Aérodrome :
LOGIN :

S'inscrire | Disclaimer

   EN    FR    IT 

 










Légende :    VFR   VFR Marginal   IFR   IFR Intensif   IFR Très Intensif
Visi : 
Plafond : 
>= 8 km
>= 3000ft
5 à 8 km
1000 à 3000 ft
1500m à 5 km
500 à 1000 ft
800 à 1500m
200 à 500 ft
< 800m
< 200 ft
Symboles :   Orages  Brouillard  Fortes neiges  Fortes précipitations  Vent > 20 kt
SIGMETs :   Divers  Orages  Givrage  Turbulence  Onde Orograph.  Cendres Volcan.






- Altitude de l'aérodrome : 195 ft


LFMY - Salon de Provence

DERNIER METAR :
  • 121300Z AUTO 33018G31KT CAVOK 13/01 Q1003 NOSIG

METARs EXPIRÉS :
  • 121230Z AUTO 32019G33KT CAVOK 13/01 Q1004 NOSIG
  • 121200Z AUTO 33017KT 290V360 CAVOK 13/01 Q1004 TEMPO 33025G35KT
  • 121130Z AUTO 33017G28KT 300V360 CAVOK 13/01 Q1005 NOSIG
  • 121100Z AUTO 33022KT CAVOK 12/01 Q1005 TEMPO 33025G35KT
  • 121030Z AUTO 33020G31KT 280V360 CAVOK 12/01 Q1006 NOSIG

TAF TAF LFMY
Valide du 12 à 09h jusqu'au 13 à 09h UTC


120800Z 1209/1309 33015G25KT CAVOK
TEMPO 1209/1215 33025G35KT
BECMG 1300/1302 33010KT
BECMG 1307/1309 33015G25KT



MET'MAP, la Météo Aéronautique d'un coup d'oeil ! - Copyright ORBIFLY Décembre 2007 - Disclaimer

ORBIFLY MET'MAP TEAM :

Programmation & Développement : Alexandra Zaïnal
Conception & Développement : Baudouin d'Aumeries
Co-Programmation & Développement : Marc-Olivier Méhu
Soutien technique & logistique : Manuel Goepfert

Contact : metmap@orbifly.com




SOURCES & CREDITS :

   NOAA